sensor_id;sensor_type;location;lat;lon;timestamp;P1;durP1;ratioP1;P2;durP2;ratioP2
9260;SDS011;4667;42.726;23.252;2023-12-07T00:01:42;20.53;;;13.17;;
9260;SDS011;4667;42.726;23.252;2023-12-07T00:04:09;17.13;;;12.10;;
9260;SDS011;4667;42.726;23.252;2023-12-07T00:06:36;18.80;;;13.23;;
9260;SDS011;4667;42.726;23.252;2023-12-07T00:09:03;17.93;;;13.00;;
9260;SDS011;4667;42.726;23.252;2023-12-07T00:11:30;19.70;;;13.50;;
9260;SDS011;4667;42.726;23.252;2023-12-07T00:13:59;19.20;;;12.47;;
9260;SDS011;4667;42.726;23.252;2023-12-07T00:16:26;15.63;;;12.30;;
9260;SDS011;4667;42.726;23.252;2023-12-07T00:18:54;16.10;;;11.57;;
9260;SDS011;4667;42.726;23.252;2023-12-07T00:21:21;17.00;;;11.13;;
9260;SDS011;4667;42.726;23.252;2023-12-07T00:23:49;18.67;;;12.60;;
9260;SDS011;4667;42.726;23.252;2023-12-07T00:26:16;17.67;;;12.83;;
9260;SDS011;4667;42.726;23.252;2023-12-07T00:28:43;17.97;;;12.33;;
9260;SDS011;4667;42.726;23.252;2023-12-07T00:31:12;17.03;;;11.90;;
9260;SDS011;4667;42.726;23.252;2023-12-07T00:33:39;17.20;;;11.87;;
9260;SDS011;4667;42.726;23.252;2023-12-07T00:36:07;19.37;;;12.50;;
9260;SDS011;4667;42.726;23.252;2023-12-07T00:38:35;18.13;;;12.53;;
9260;SDS011;4667;42.726;23.252;2023-12-07T00:41:02;18.53;;;13.57;;
9260;SDS011;4667;42.726;23.252;2023-12-07T00:43:29;20.53;;;15.03;;
9260;SDS011;4667;42.726;23.252;2023-12-07T00:45:57;18.90;;;14.43;;
9260;SDS011;4667;42.726;23.252;2023-12-07T00:48:26;22.10;;;15.17;;
9260;SDS011;4667;42.726;23.252;2023-12-07T00:50:54;26.40;;;17.03;;
9260;SDS011;4667;42.726;23.252;2023-12-07T00:53:22;22.07;;;15.57;;
9260;SDS011;4667;42.726;23.252;2023-12-07T00:55:49;26.47;;;16.30;;
9260;SDS011;4667;42.726;23.252;2023-12-07T00:58:16;23.23;;;16.33;;
9260;SDS011;4667;42.726;23.252;2023-12-07T01:00:43;23.97;;;15.73;;
9260;SDS011;4667;42.726;23.252;2023-12-07T01:03:11;22.57;;;14.80;;
9260;SDS011;4667;42.726;23.252;2023-12-07T01:05:39;24.97;;;15.87;;
9260;SDS011;4667;42.726;23.252;2023-12-07T01:08:07;21.63;;;15.33;;
9260;SDS011;4667;42.726;23.252;2023-12-07T01:10:34;23.63;;;16.07;;
9260;SDS011;4667;42.726;23.252;2023-12-07T01:13:01;23.80;;;16.33;;
9260;SDS011;4667;42.726;23.252;2023-12-07T01:15:28;22.83;;;15.23;;
9260;SDS011;4667;42.726;23.252;2023-12-07T01:17:56;22.83;;;16.37;;
9260;SDS011;4667;42.726;23.252;2023-12-07T01:20:23;28.67;;;17.30;;
9260;SDS011;4667;42.726;23.252;2023-12-07T01:23:02;26.13;;;16.87;;
9260;SDS011;4667;42.726;23.252;2023-12-07T01:25:31;27.60;;;18.53;;
9260;SDS011;4667;42.726;23.252;2023-12-07T01:28:01;24.47;;;16.93;;
9260;SDS011;4667;42.726;23.252;2023-12-07T01:30:30;26.93;;;17.40;;
9260;SDS011;4667;42.726;23.252;2023-12-07T01:32:57;26.57;;;17.90;;
9260;SDS011;4667;42.726;23.252;2023-12-07T01:35:25;27.80;;;16.70;;
9260;SDS011;4667;42.726;23.252;2023-12-07T01:37:53;24.13;;;16.27;;
9260;SDS011;4667;42.726;23.252;2023-12-07T01:40:27;26.30;;;16.30;;
9260;SDS011;4667;42.726;23.252;2023-12-07T01:43:03;23.40;;;15.67;;
9260;SDS011;4667;42.726;23.252;2023-12-07T01:45:36;24.27;;;15.07;;
9260;SDS011;4667;42.726;23.252;2023-12-07T01:48:03;26.97;;;16.07;;
9260;SDS011;4667;42.726;23.252;2023-12-07T01:50:31;22.63;;;14.50;;
9260;SDS011;4667;42.726;23.252;2023-12-07T01:53:01;24.00;;;15.13;;
9260;SDS011;4667;42.726;23.252;2023-12-07T01:55:30;21.93;;;14.20;;
9260;SDS011;4667;42.726;23.252;2023-12-07T01:58:00;22.07;;;14.13;;
9260;SDS011;4667;42.726;23.252;2023-12-07T02:00:28;21.23;;;14.40;;
9260;SDS011;4667;42.726;23.252;2023-12-07T02:02:57;20.40;;;13.70;;
9260;SDS011;4667;42.726;23.252;2023-12-07T02:05:24;19.90;;;13.07;;
9260;SDS011;4667;42.726;23.252;2023-12-07T02:07:52;20.93;;;14.43;;
9260;SDS011;4667;42.726;23.252;2023-12-07T02:10:20;17.47;;;12.17;;
9260;SDS011;4667;42.726;23.252;2023-12-07T02:12:48;19.37;;;10.97;;
9260;SDS011;4667;42.726;23.252;2023-12-07T02:15:16;16.80;;;12.30;;
9260;SDS011;4667;42.726;23.252;2023-12-07T02:17:47;19.97;;;12.00;;
9260;SDS011;4667;42.726;23.252;2023-12-07T02:20:24;17.13;;;12.33;;
9260;SDS011;4667;42.726;23.252;2023-12-07T02:22:57;16.90;;;12.33;;
9260;SDS011;4667;42.726;23.252;2023-12-07T02:25:29;18.20;;;11.87;;
9260;SDS011;4667;42.726;23.252;2023-12-07T02:28:04;16.50;;;12.50;;
9260;SDS011;4667;42.726;23.252;2023-12-07T02:30:31;22.50;;;14.00;;
9260;SDS011;4667;42.726;23.252;2023-12-07T02:49:51;19.13;;;12.17;;
9260;SDS011;4667;42.726;23.252;2023-12-07T02:52:18;18.93;;;13.07;;
9260;SDS011;4667;42.726;23.252;2023-12-07T02:54:46;19.03;;;12.77;;
9260;SDS011;4667;42.726;23.252;2023-12-07T02:57:13;19.90;;;13.40;;
9260;SDS011;4667;42.726;23.252;2023-12-07T02:59:41;19.50;;;13.07;;
9260;SDS011;4667;42.726;23.252;2023-12-07T03:02:08;20.97;;;13.83;;
9260;SDS011;4667;42.726;23.252;2023-12-07T03:04:36;23.67;;;14.40;;
9260;SDS011;4667;42.726;23.252;2023-12-07T03:07:05;23.37;;;13.67;;
9260;SDS011;4667;42.726;23.252;2023-12-07T03:09:32;23.40;;;13.80;;
9260;SDS011;4667;42.726;23.252;2023-12-07T03:12:01;22.47;;;15.80;;
9260;SDS011;4667;42.726;23.252;2023-12-07T03:14:28;23.17;;;15.03;;
9260;SDS011;4667;42.726;23.252;2023-12-07T03:16:55;25.00;;;15.47;;
9260;SDS011;4667;42.726;23.252;2023-12-07T03:19:22;24.50;;;15.80;;
9260;SDS011;4667;42.726;23.252;2023-12-07T03:21:49;23.60;;;15.57;;
9260;SDS011;4667;42.726;23.252;2023-12-07T03:24:18;21.80;;;14.03;;
9260;SDS011;4667;42.726;23.252;2023-12-07T03:26:45;26.40;;;15.37;;
9260;SDS011;4667;42.726;23.252;2023-12-07T03:29:12;23.73;;;15.57;;
9260;SDS011;4667;42.726;23.252;2023-12-07T03:31:39;23.37;;;14.93;;
9260;SDS011;4667;42.726;23.252;2023-12-07T03:34:06;20.30;;;14.33;;
9260;SDS011;4667;42.726;23.252;2023-12-07T03:36:33;23.03;;;15.10;;
9260;SDS011;4667;42.726;23.252;2023-12-07T03:39:00;20.10;;;13.63;;
9260;SDS011;4667;42.726;23.252;2023-12-07T03:41:31;21.47;;;13.40;;
9260;SDS011;4667;42.726;23.252;2023-12-07T03:43:58;20.63;;;13.90;;
9260;SDS011;4667;42.726;23.252;2023-12-07T03:46:25;21.00;;;13.40;;
9260;SDS011;4667;42.726;23.252;2023-12-07T03:48:53;19.20;;;12.67;;
9260;SDS011;4667;42.726;23.252;2023-12-07T03:51:21;20.90;;;13.63;;
9260;SDS011;4667;42.726;23.252;2023-12-07T03:53:48;18.50;;;12.30;;
9260;SDS011;4667;42.726;23.252;2023-12-07T03:56:22;19.20;;;13.97;;
9260;SDS011;4667;42.726;23.252;2023-12-07T03:59:03;21.43;;;13.43;;
9260;SDS011;4667;42.726;23.252;2023-12-07T04:01:30;19.07;;;12.87;;
9260;SDS011;4667;42.726;23.252;2023-12-07T04:03:58;22.20;;;14.40;;
9260;SDS011;4667;42.726;23.252;2023-12-07T04:06:26;22.20;;;15.57;;
9260;SDS011;4667;42.726;23.252;2023-12-07T04:08:53;24.37;;;14.67;;
9260;SDS011;4667;42.726;23.252;2023-12-07T04:11:21;23.70;;;14.57;;
9260;SDS011;4667;42.726;23.252;2023-12-07T04:13:48;19.63;;;14.03;;
9260;SDS011;4667;42.726;23.252;2023-12-07T04:16:16;23.23;;;14.47;;
9260;SDS011;4667;42.726;23.252;2023-12-07T04:18:44;24.30;;;14.33;;
9260;SDS011;4667;42.726;23.252;2023-12-07T04:21:11;18.90;;;13.93;;
9260;SDS011;4667;42.726;23.252;2023-12-07T04:23:39;22.77;;;15.00;;
9260;SDS011;4667;42.726;23.252;2023-12-07T04:26:06;23.80;;;14.87;;
9260;SDS011;4667;42.726;23.252;2023-12-07T04:28:33;22.83;;;15.77;;
9260;SDS011;4667;42.726;23.252;2023-12-07T04:31:00;24.20;;;15.30;;
9260;SDS011;4667;42.726;23.252;2023-12-07T04:33:29;24.70;;;15.20;;
9260;SDS011;4667;42.726;23.252;2023-12-07T04:35:56;25.80;;;15.57;;
9260;SDS011;4667;42.726;23.252;2023-12-07T04:38:23;23.13;;;15.73;;
9260;SDS011;4667;42.726;23.252;2023-12-07T04:40:50;21.37;;;15.03;;
9260;SDS011;4667;42.726;23.252;2023-12-07T04:43:17;24.57;;;15.47;;
9260;SDS011;4667;42.726;23.252;2023-12-07T04:45:44;26.17;;;16.27;;
9260;SDS011;4667;42.726;23.252;2023-12-07T04:48:12;25.07;;;15.80;;
9260;SDS011;4667;42.726;23.252;2023-12-07T04:50:42;21.93;;;14.80;;
9260;SDS011;4667;42.726;23.252;2023-12-07T04:53:09;24.03;;;14.63;;
9260;SDS011;4667;42.726;23.252;2023-12-07T04:55:36;20.67;;;14.53;;
9260;SDS011;4667;42.726;23.252;2023-12-07T04:58:04;23.67;;;15.37;;
9260;SDS011;4667;42.726;23.252;2023-12-07T05:00:33;25.93;;;15.90;;
9260;SDS011;4667;42.726;23.252;2023-12-07T05:03:00;21.87;;;15.43;;
9260;SDS011;4667;42.726;23.252;2023-12-07T05:05:28;21.83;;;15.53;;
9260;SDS011;4667;42.726;23.252;2023-12-07T05:07:57;28.23;;;17.00;;
9260;SDS011;4667;42.726;23.252;2023-12-07T05:10:24;24.00;;;15.17;;
9260;SDS011;4667;42.726;23.252;2023-12-07T05:12:51;23.23;;;15.77;;
9260;SDS011;4667;42.726;23.252;2023-12-07T05:15:18;24.60;;;15.47;;
9260;SDS011;4667;42.726;23.252;2023-12-07T05:17:45;24.77;;;15.40;;
9260;SDS011;4667;42.726;23.252;2023-12-07T05:20:12;31.03;;;16.93;;
9260;SDS011;4667;42.726;23.252;2023-12-07T05:22:40;28.87;;;16.93;;
9260;SDS011;4667;42.726;23.252;2023-12-07T05:25:09;23.93;;;14.87;;
9260;SDS011;4667;42.726;23.252;2023-12-07T05:27:38;24.33;;;14.03;;
9260;SDS011;4667;42.726;23.252;2023-12-07T05:30:05;24.30;;;15.53;;
9260;SDS011;4667;42.726;23.252;2023-12-07T05:32:33;21.87;;;13.83;;
9260;SDS011;4667;42.726;23.252;2023-12-07T05:35:00;21.77;;;14.80;;
9260;SDS011;4667;42.726;23.252;2023-12-07T05:37:28;20.23;;;13.43;;
9260;SDS011;4667;42.726;23.252;2023-12-07T05:39:55;21.23;;;14.00;;
9260;SDS011;4667;42.726;23.252;2023-12-07T05:42:24;21.17;;;13.67;;
9260;SDS011;4667;42.726;23.252;2023-12-07T05:44:51;17.60;;;12.13;;
9260;SDS011;4667;42.726;23.252;2023-12-07T05:47:18;18.60;;;12.23;;
9260;SDS011;4667;42.726;23.252;2023-12-07T05:49:45;23.20;;;13.33;;
9260;SDS011;4667;42.726;23.252;2023-12-07T05:52:13;20.17;;;13.70;;
9260;SDS011;4667;42.726;23.252;2023-12-07T05:54:40;22.20;;;12.70;;
9260;SDS011;4667;42.726;23.252;2023-12-07T05:57:08;24.17;;;13.80;;
9260;SDS011;4667;42.726;23.252;2023-12-07T05:59:38;26.33;;;13.17;;
9260;SDS011;4667;42.726;23.252;2023-12-07T06:02:05;18.27;;;13.07;;
9260;SDS011;4667;42.726;23.252;2023-12-07T06:04:32;21.57;;;14.70;;
9260;SDS011;4667;42.726;23.252;2023-12-07T06:06:59;20.03;;;13.80;;
9260;SDS011;4667;42.726;23.252;2023-12-07T06:09:28;21.23;;;12.50;;
9260;SDS011;4667;42.726;23.252;2023-12-07T06:11:55;22.30;;;14.23;;
9260;SDS011;4667;42.726;23.252;2023-12-07T06:14:22;19.30;;;13.87;;
9260;SDS011;4667;42.726;23.252;2023-12-07T06:16:55;18.47;;;13.13;;
9260;SDS011;4667;42.726;23.252;2023-12-07T06:19:30;17.80;;;10.53;;
9260;SDS011;4667;42.726;23.252;2023-12-07T06:21:58;18.40;;;13.60;;
9260;SDS011;4667;42.726;23.252;2023-12-07T06:24:25;19.77;;;12.90;;
9260;SDS011;4667;42.726;23.252;2023-12-07T06:26:52;18.57;;;12.23;;
9260;SDS011;4667;42.726;23.252;2023-12-07T06:29:20;17.33;;;12.20;;
9260;SDS011;4667;42.726;23.252;2023-12-07T06:31:47;16.87;;;12.73;;
9260;SDS011;4667;42.726;23.252;2023-12-07T06:34:15;15.90;;;11.30;;
9260;SDS011;4667;42.726;23.252;2023-12-07T06:36:43;19.90;;;12.67;;
9260;SDS011;4667;42.726;23.252;2023-12-07T06:39:11;17.40;;;12.57;;
9260;SDS011;4667;42.726;23.252;2023-12-07T06:41:41;17.93;;;13.07;;
9260;SDS011;4667;42.726;23.252;2023-12-07T06:44:08;20.73;;;13.30;;
9260;SDS011;4667;42.726;23.252;2023-12-07T06:46:35;19.00;;;13.20;;
9260;SDS011;4667;42.726;23.252;2023-12-07T06:49:02;19.63;;;12.67;;
9260;SDS011;4667;42.726;23.252;2023-12-07T06:51:30;21.90;;;13.77;;
9260;SDS011;4667;42.726;23.252;2023-12-07T06:53:57;18.63;;;13.30;;
9260;SDS011;4667;42.726;23.252;2023-12-07T06:56:24;18.50;;;13.23;;
9260;SDS011;4667;42.726;23.252;2023-12-07T06:58:51;21.20;;;14.80;;
9260;SDS011;4667;42.726;23.252;2023-12-07T07:01:18;22.37;;;14.57;;
9260;SDS011;4667;42.726;23.252;2023-12-07T07:03:45;21.60;;;14.80;;
9260;SDS011;4667;42.726;23.252;2023-12-07T07:06:12;18.43;;;12.77;;
9260;SDS011;4667;42.726;23.252;2023-12-07T07:08:41;15.10;;;11.03;;
9260;SDS011;4667;42.726;23.252;2023-12-07T07:11:12;17.07;;;12.03;;
9260;SDS011;4667;42.726;23.252;2023-12-07T07:13:40;17.90;;;11.03;;
9260;SDS011;4667;42.726;23.252;2023-12-07T07:16:07;16.07;;;10.70;;
9260;SDS011;4667;42.726;23.252;2023-12-07T07:18:35;15.17;;;10.83;;
9260;SDS011;4667;42.726;23.252;2023-12-07T07:21:03;16.48;;;12.07;;
9260;SDS011;4667;42.726;23.252;2023-12-07T07:23:31;16.83;;;11.70;;
9260;SDS011;4667;42.726;23.252;2023-12-07T07:25:59;15.90;;;10.77;;
9260;SDS011;4667;42.726;23.252;2023-12-07T07:28:26;8.00;;;6.73;;
9260;SDS011;4667;42.726;23.252;2023-12-07T07:30:53;8.10;;;6.37;;
9260;SDS011;4667;42.726;23.252;2023-12-07T07:33:20;8.30;;;6.07;;
9260;SDS011;4667;42.726;23.252;2023-12-07T07:35:47;7.93;;;5.83;;
9260;SDS011;4667;42.726;23.252;2023-12-07T07:38:14;7.33;;;5.83;;
9260;SDS011;4667;42.726;23.252;2023-12-07T07:40:42;6.23;;;4.70;;
9260;SDS011;4667;42.726;23.252;2023-12-07T07:43:12;7.53;;;5.23;;
9260;SDS011;4667;42.726;23.252;2023-12-07T07:45:39;6.77;;;5.73;;
9260;SDS011;4667;42.726;23.252;2023-12-07T07:48:06;7.33;;;5.60;;
9260;SDS011;4667;42.726;23.252;2023-12-07T07:50:33;6.60;;;5.17;;
9260;SDS011;4667;42.726;23.252;2023-12-07T07:53:01;6.40;;;5.20;;
9260;SDS011;4667;42.726;23.252;2023-12-07T07:55:28;5.40;;;4.90;;
9260;SDS011;4667;42.726;23.252;2023-12-07T07:57:56;9.00;;;4.90;;
9260;SDS011;4667;42.726;23.252;2023-12-07T08:00:25;6.37;;;4.80;;
9260;SDS011;4667;42.726;23.252;2023-12-07T08:02:53;5.57;;;5.00;;
9260;SDS011;4667;42.726;23.252;2023-12-07T08:05:20;5.73;;;4.77;;
9260;SDS011;4667;42.726;23.252;2023-12-07T08:07:47;5.77;;;4.80;;
9260;SDS011;4667;42.726;23.252;2023-12-07T08:10:14;6.13;;;4.97;;
9260;SDS011;4667;42.726;23.252;2023-12-07T08:12:41;5.20;;;4.70;;
9260;SDS011;4667;42.726;23.252;2023-12-07T08:15:08;6.57;;;4.87;;
9260;SDS011;4667;42.726;23.252;2023-12-07T08:17:38;6.17;;;5.07;;
9260;SDS011;4667;42.726;23.252;2023-12-07T08:20:07;6.50;;;5.07;;
9260;SDS011;4667;42.726;23.252;2023-12-07T08:22:35;7.37;;;4.70;;
9260;SDS011;4667;42.726;23.252;2023-12-07T08:25:02;5.30;;;4.40;;
9260;SDS011;4667;42.726;23.252;2023-12-07T08:27:31;5.03;;;3.90;;
9260;SDS011;4667;42.726;23.252;2023-12-07T08:29:58;4.37;;;3.97;;
9260;SDS011;4667;42.726;23.252;2023-12-07T08:32:25;4.77;;;4.27;;
9260;SDS011;4667;42.726;23.252;2023-12-07T08:34:53;4.43;;;4.03;;
9260;SDS011;4667;42.726;23.252;2023-12-07T08:37:20;5.47;;;4.60;;
9260;SDS011;4667;42.726;23.252;2023-12-07T08:39:47;5.77;;;3.97;;
9260;SDS011;4667;42.726;23.252;2023-12-07T08:42:14;6.93;;;5.17;;
9260;SDS011;4667;42.726;23.252;2023-12-07T08:44:42;5.17;;;4.00;;
9260;SDS011;4667;42.726;23.252;2023-12-07T08:47:09;5.33;;;3.77;;
9260;SDS011;4667;42.726;23.252;2023-12-07T08:49:36;4.40;;;4.00;;
9260;SDS011;4667;42.726;23.252;2023-12-07T08:52:04;3.97;;;3.57;;
9260;SDS011;4667;42.726;23.252;2023-12-07T08:54:32;4.10;;;3.60;;
9260;SDS011;4667;42.726;23.252;2023-12-07T08:56:58;5.33;;;3.97;;
9260;SDS011;4667;42.726;23.252;2023-12-07T08:59:25;5.33;;;4.40;;
9260;SDS011;4667;42.726;23.252;2023-12-07T09:01:52;4.93;;;4.53;;
9260;SDS011;4667;42.726;23.252;2023-12-07T09:04:19;7.00;;;5.10;;
9260;SDS011;4667;42.726;23.252;2023-12-07T09:06:46;5.47;;;4.97;;
9260;SDS011;4667;42.726;23.252;2023-12-07T09:09:14;4.73;;;4.33;;
9260;SDS011;4667;42.726;23.252;2023-12-07T09:11:41;6.33;;;4.50;;
9260;SDS011;4667;42.726;23.252;2023-12-07T09:14:08;4.73;;;4.27;;
9260;SDS011;4667;42.726;23.252;2023-12-07T09:16:42;4.30;;;3.90;;
9260;SDS011;4667;42.726;23.252;2023-12-07T09:19:09;7.00;;;4.27;;
9260;SDS011;4667;42.726;23.252;2023-12-07T09:21:37;4.50;;;4.10;;
9260;SDS011;4667;42.726;23.252;2023-12-07T09:24:04;5.90;;;4.60;;
9260;SDS011;4667;42.726;23.252;2023-12-07T09:26:33;5.60;;;4.70;;
9260;SDS011;4667;42.726;23.252;2023-12-07T09:29:00;3.90;;;3.60;;
9260;SDS011;4667;42.726;23.252;2023-12-07T09:31:27;3.67;;;3.30;;
9260;SDS011;4667;42.726;23.252;2023-12-07T09:33:54;4.97;;;3.67;;
9260;SDS011;4667;42.726;23.252;2023-12-07T09:36:21;4.50;;;3.73;;
9260;SDS011;4667;42.726;23.252;2023-12-07T09:38:49;5.27;;;3.60;;
9260;SDS011;4667;42.726;23.252;2023-12-07T09:41:16;3.87;;;3.47;;
9260;SDS011;4667;42.726;23.252;2023-12-07T09:43:44;3.40;;;3.10;;
9260;SDS011;4667;42.726;23.252;2023-12-07T09:46:11;4.97;;;2.80;;
9260;SDS011;4667;42.726;23.252;2023-12-07T09:48:40;4.33;;;3.77;;
9260;SDS011;4667;42.726;23.252;2023-12-07T09:51:10;4.33;;;2.97;;
9260;SDS011;4667;42.726;23.252;2023-12-07T09:53:38;2.80;;;2.60;;
9260;SDS011;4667;42.726;23.252;2023-12-07T09:56:07;3.40;;;3.10;;
9260;SDS011;4667;42.726;23.252;2023-12-07T09:58:35;3.30;;;2.70;;
9260;SDS011;4667;42.726;23.252;2023-12-07T10:01:03;3.17;;;2.40;;
9260;SDS011;4667;42.726;23.252;2023-12-07T10:03:31;6.30;;;3.17;;
9260;SDS011;4667;42.726;23.252;2023-12-07T10:05:59;2.57;;;2.37;;
9260;SDS011;4667;42.726;23.252;2023-12-07T10:08:27;3.47;;;2.67;;
9260;SDS011;4667;42.726;23.252;2023-12-07T10:11:07;3.37;;;3.00;;
9260;SDS011;4667;42.726;23.252;2023-12-07T10:13:44;3.30;;;2.60;;
9260;SDS011;4667;42.726;23.252;2023-12-07T10:16:13;3.50;;;2.00;;
9260;SDS011;4667;42.726;23.252;2023-12-07T10:18:42;2.80;;;2.60;;
9260;SDS011;4667;42.726;23.252;2023-12-07T10:21:09;2.87;;;2.60;;
9260;SDS011;4667;42.726;23.252;2023-12-07T10:23:37;2.43;;;2.23;;
9260;SDS011;4667;42.726;23.252;2023-12-07T10:26:05;3.77;;;2.60;;
9260;SDS011;4667;42.726;23.252;2023-12-07T10:28:35;2.50;;;1.93;;
9260;SDS011;4667;42.726;23.252;2023-12-07T10:31:06;2.50;;;2.30;;
9260;SDS011;4667;42.726;23.252;2023-12-07T10:33:56;3.07;;;2.87;;
9260;SDS011;4667;42.726;23.252;2023-12-07T10:36:24;4.07;;;3.57;;
9260;SDS011;4667;42.726;23.252;2023-12-07T10:38:51;4.17;;;3.20;;
9260;SDS011;4667;42.726;23.252;2023-12-07T10:41:22;4.80;;;3.37;;
9260;SDS011;4667;42.726;23.252;2023-12-07T10:43:53;3.83;;;3.50;;
9260;SDS011;4667;42.726;23.252;2023-12-07T10:46:21;4.13;;;3.23;;
9260;SDS011;4667;42.726;23.252;2023-12-07T10:48:55;3.07;;;2.77;;
9260;SDS011;4667;42.726;23.252;2023-12-07T10:51:31;3.40;;;2.90;;
9260;SDS011;4667;42.726;23.252;2023-12-07T10:54:02;7.63;;;3.30;;
9260;SDS011;4667;42.726;23.252;2023-12-07T10:56:33;3.93;;;3.17;;
9260;SDS011;4667;42.726;23.252;2023-12-07T10:59:10;4.50;;;3.30;;
9260;SDS011;4667;42.726;23.252;2023-12-07T11:01:39;3.00;;;2.67;;
9260;SDS011;4667;42.726;23.252;2023-12-07T11:04:12;3.83;;;2.90;;
9260;SDS011;4667;42.726;23.252;2023-12-07T11:06:40;3.10;;;2.80;;
9260;SDS011;4667;42.726;23.252;2023-12-07T11:09:09;2.83;;;2.47;;
9260;SDS011;4667;42.726;23.252;2023-12-07T11:11:58;4.43;;;3.20;;
9260;SDS011;4667;42.726;23.252;2023-12-07T11:15:07;4.50;;;3.53;;
9260;SDS011;4667;42.726;23.252;2023-12-07T11:18:28;3.67;;;3.07;;
9260;SDS011;4667;42.726;23.252;2023-12-07T11:20:58;2.80;;;2.53;;
9260;SDS011;4667;42.726;23.252;2023-12-07T11:23:26;3.43;;;2.70;;
9260;SDS011;4667;42.726;23.252;2023-12-07T11:25:54;3.67;;;2.63;;
9260;SDS011;4667;42.726;23.252;2023-12-07T11:28:33;3.60;;;3.30;;
9260;SDS011;4667;42.726;23.252;2023-12-07T11:31:03;3.07;;;2.77;;
9260;SDS011;4667;42.726;23.252;2023-12-07T11:33:37;3.53;;;3.23;;
9260;SDS011;4667;42.726;23.252;2023-12-07T11:36:08;3.40;;;3.10;;
9260;SDS011;4667;42.726;23.252;2023-12-07T11:41:43;3.20;;;2.97;;
9260;SDS011;4667;42.726;23.252;2023-12-07T11:44:11;2.80;;;2.60;;
9260;SDS011;4667;42.726;23.252;2023-12-07T11:46:38;4.20;;;3.57;;
9260;SDS011;4667;42.726;23.252;2023-12-07T11:49:06;3.53;;;3.00;;
9260;SDS011;4667;42.726;23.252;2023-12-07T11:51:38;4.33;;;3.83;;
9260;SDS011;4667;42.726;23.252;2023-12-07T11:54:06;4.67;;;4.27;;
9260;SDS011;4667;42.726;23.252;2023-12-07T11:56:36;5.13;;;4.60;;
9260;SDS011;4667;42.726;23.252;2023-12-07T11:59:04;4.30;;;3.77;;
9260;SDS011;4667;42.726;23.252;2023-12-07T12:01:31;5.63;;;4.20;;
9260;SDS011;4667;42.726;23.252;2023-12-07T12:03:58;3.70;;;3.40;;
9260;SDS011;4667;42.726;23.252;2023-12-07T12:06:29;3.13;;;2.90;;
9260;SDS011;4667;42.726;23.252;2023-12-07T12:09:07;3.73;;;3.27;;
9260;SDS011;4667;42.726;23.252;2023-12-07T12:11:35;4.97;;;4.03;;
9260;SDS011;4667;42.726;23.252;2023-12-07T12:14:02;4.53;;;3.53;;
9260;SDS011;4667;42.726;23.252;2023-12-07T12:16:31;3.70;;;3.40;;
9260;SDS011;4667;42.726;23.252;2023-12-07T12:19:00;3.97;;;2.73;;
9260;SDS011;4667;42.726;23.252;2023-12-07T12:21:28;5.40;;;3.90;;
9260;SDS011;4667;42.726;23.252;2023-12-07T12:24:01;3.87;;;3.20;;
9260;SDS011;4667;42.726;23.252;2023-12-07T12:26:30;4.33;;;3.80;;
9260;SDS011;4667;42.726;23.252;2023-12-07T12:28:58;4.03;;;3.63;;
9260;SDS011;4667;42.726;23.252;2023-12-07T12:31:28;3.63;;;2.90;;
9260;SDS011;4667;42.726;23.252;2023-12-07T12:33:55;3.97;;;3.60;;
9260;SDS011;4667;42.726;23.252;2023-12-07T12:36:25;3.90;;;3.27;;
9260;SDS011;4667;42.726;23.252;2023-12-07T12:38:57;4.90;;;4.17;;
9260;SDS011;4667;42.726;23.252;2023-12-07T12:41:26;4.33;;;3.70;;
9260;SDS011;4667;42.726;23.252;2023-12-07T12:43:56;4.70;;;3.27;;
9260;SDS011;4667;42.726;23.252;2023-12-07T12:46:25;3.70;;;2.90;;
9260;SDS011;4667;42.726;23.252;2023-12-07T12:48:53;3.53;;;3.23;;
9260;SDS011;4667;42.726;23.252;2023-12-07T12:51:24;3.50;;;3.20;;
9260;SDS011;4667;42.726;23.252;2023-12-07T12:53:55;3.80;;;3.50;;
9260;SDS011;4667;42.726;23.252;2023-12-07T12:56:32;5.80;;;3.10;;
9260;SDS011;4667;42.726;23.252;2023-12-07T12:58:59;4.00;;;3.50;;
9260;SDS011;4667;42.726;23.252;2023-12-07T13:01:27;9.20;;;3.83;;
9260;SDS011;4667;42.726;23.252;2023-12-07T13:03:54;5.27;;;4.67;;
9260;SDS011;4667;42.726;23.252;2023-12-07T13:06:26;5.93;;;4.80;;
9260;SDS011;4667;42.726;23.252;2023-12-07T13:08:56;4.67;;;4.13;;
9260;SDS011;4667;42.726;23.252;2023-12-07T13:11:24;5.33;;;3.90;;
9260;SDS011;4667;42.726;23.252;2023-12-07T13:13:56;5.73;;;3.93;;
9260;SDS011;4667;42.726;23.252;2023-12-07T13:16:24;4.40;;;4.03;;
9260;SDS011;4667;42.726;23.252;2023-12-07T13:18:52;5.30;;;4.37;;
9260;SDS011;4667;42.726;23.252;2023-12-07T13:21:21;3.87;;;3.57;;
9260;SDS011;4667;42.726;23.252;2023-12-07T13:23:55;4.53;;;4.13;;
9260;SDS011;4667;42.726;23.252;2023-12-07T13:26:30;4.90;;;4.40;;
9260;SDS011;4667;42.726;23.252;2023-12-07T13:31:45;8.03;;;4.07;;
9260;SDS011;4667;42.726;23.252;2023-12-07T13:34:14;4.77;;;4.23;;
9260;SDS011;4667;42.726;23.252;2023-12-07T13:36:47;5.10;;;4.57;;
9260;SDS011;4667;42.726;23.252;2023-12-07T13:39:15;5.73;;;5.13;;
9260;SDS011;4667;42.726;23.252;2023-12-07T13:41:52;8.70;;;6.07;;
9260;SDS011;4667;42.726;23.252;2023-12-07T13:44:25;5.93;;;5.17;;
9260;SDS011;4667;42.726;23.252;2023-12-07T13:46:59;7.77;;;5.67;;
9260;SDS011;4667;42.726;23.252;2023-12-07T13:49:26;5.83;;;5.23;;
9260;SDS011;4667;42.726;23.252;2023-12-07T13:51:53;6.07;;;4.97;;
9260;SDS011;4667;42.726;23.252;2023-12-07T13:54:22;6.23;;;4.93;;
9260;SDS011;4667;42.726;23.252;2023-12-07T13:56:50;7.70;;;5.53;;
9260;SDS011;4667;42.726;23.252;2023-12-07T13:59:17;6.83;;;5.87;;
9260;SDS011;4667;42.726;23.252;2023-12-07T14:01:46;7.20;;;5.40;;
9260;SDS011;4667;42.726;23.252;2023-12-07T14:04:13;8.03;;;5.63;;
9260;SDS011;4667;42.726;23.252;2023-12-07T14:06:40;9.10;;;5.40;;
9260;SDS011;4667;42.726;23.252;2023-12-07T14:09:07;9.47;;;6.40;;
9260;SDS011;4667;42.726;23.252;2023-12-07T14:11:35;9.10;;;6.70;;
9260;SDS011;4667;42.726;23.252;2023-12-07T14:14:04;6.93;;;6.07;;
9260;SDS011;4667;42.726;23.252;2023-12-07T14:16:32;8.37;;;5.80;;
9260;SDS011;4667;42.726;23.252;2023-12-07T14:19:00;8.47;;;6.60;;
9260;SDS011;4667;42.726;23.252;2023-12-07T14:21:28;7.63;;;6.50;;
9260;SDS011;4667;42.726;23.252;2023-12-07T14:23:56;9.57;;;6.27;;
9260;SDS011;4667;42.726;23.252;2023-12-07T14:26:23;7.77;;;6.57;;
9260;SDS011;4667;42.726;23.252;2023-12-07T14:28:50;10.07;;;6.47;;
9260;SDS011;4667;42.726;23.252;2023-12-07T14:31:17;8.93;;;6.23;;
9260;SDS011;4667;42.726;23.252;2023-12-07T14:33:44;8.80;;;6.33;;
9260;SDS011;4667;42.726;23.252;2023-12-07T14:36:13;7.70;;;6.33;;
9260;SDS011;4667;42.726;23.252;2023-12-07T14:38:40;8.10;;;5.87;;
9260;SDS011;4667;42.726;23.252;2023-12-07T14:41:08;8.40;;;6.33;;
9260;SDS011;4667;42.726;23.252;2023-12-07T14:43:37;9.23;;;6.33;;
9260;SDS011;4667;42.726;23.252;2023-12-07T14:46:05;8.83;;;7.13;;
9260;SDS011;4667;42.726;23.252;2023-12-07T14:48:33;7.77;;;6.47;;
9260;SDS011;4667;42.726;23.252;2023-12-07T14:51:00;9.20;;;7.47;;
9260;SDS011;4667;42.726;23.252;2023-12-07T14:53:29;10.10;;;6.33;;
9260;SDS011;4667;42.726;23.252;2023-12-07T14:55:56;9.40;;;7.70;;
9260;SDS011;4667;42.726;23.252;2023-12-07T14:58:23;8.50;;;6.97;;
9260;SDS011;4667;42.726;23.252;2023-12-07T15:00:50;9.83;;;7.33;;
9260;SDS011;4667;42.726;23.252;2023-12-07T15:03:17;7.60;;;6.77;;
9260;SDS011;4667;42.726;23.252;2023-12-07T15:05:44;10.03;;;7.97;;
9260;SDS011;4667;42.726;23.252;2023-12-07T15:08:11;11.83;;;7.63;;
9260;SDS011;4667;42.726;23.252;2023-12-07T15:10:40;9.70;;;7.23;;
9260;SDS011;4667;42.726;23.252;2023-12-07T15:13:06;12.27;;;8.50;;
9260;SDS011;4667;42.726;23.252;2023-12-07T15:15:33;9.57;;;6.93;;
9260;SDS011;4667;42.726;23.252;2023-12-07T15:18:03;10.03;;;8.37;;
9260;SDS011;4667;42.726;23.252;2023-12-07T15:20:30;10.93;;;7.90;;